Terminal Aerodrome Forecast
Issued by NWS

Home | Current Version | Previous Version | Text Only | Print | Product List | Glossary On
Versions: 1 2 3 4 5 6 7 8 9 10 11 12 13 14 15 16 17 18 19 20 21 22 23
918
FTUS44 KLZK 221415 AAA
TAFLIT
TAF AMD
KLIT 221415Z 2214/2312 VRB03KT 6SM BR OVC005
     FM221800 14004KT P6SM SCT012 SCT040
     FM230600 VRB03KT 3SM BR BKN010
      TEMPO 2308/2312 1SM BR BKN005=

USA.gov is the U.S. government's official web portal to all federal, state and local government web resources and services.